• Join FlightAware (Why Join?)
  • Login
  • US Flag 
10:52AM EST


 

Airport Tracker/Info


-or-


 

Live Flight TrackerFlight Track Log ✈ UAL4274 ✈ 08-Nov-2013 ✈ KRIC - KCLE

Flight Track Log - Related Links

Times and Time Zones

All times are in EST time to prevent confusion due to time zone crossing. See the UAL4274 flight status page for this flight to view local times or setup timezone preferences in your user account.

Time Position Orientation Groundspeed Altitude Reporting Facility
EST Latitude Longitude Course Direction KTS MPH feet Rate Location/Type
06:43AM 37.4833 -77.3333 291° West 165 190 1,300  Level Potomac TRACON
06:45AM 37.4756 -77.4028 262° West 154 177 3,700 1,959 Climbing Washington Center
06:46AM 37.6983 -77.5281 310° West  Level Estimated
06:46AM 37.5183 -77.4614 313° West 154 177 6,100  Level Washington Center
06:47AM 37.7626 -77.5978 307° West  Level Estimated
06:47AM 37.5633 -77.5200 314° West 201 231 8,300  Level Washington Center
06:48AM 37.7933 -77.6977 291° West  Level FlightAware Approximate
06:48AM 37.6103 -77.5842 313° West 224 258 10,600  Level Washington Center
06:49AM 37.6550 -77.6483 311° West 243 280 12,400 1,780 Climbing Washington Center
06:50AM 37.7061 -77.7181 313° West 248 285 14,100 1,750 Climbing Washington Center
06:51AM 37.7547 -77.7875 312° West 260 299 15,900 1,900 Climbing Washington Center
06:52AM 37.8097 -77.8653 312° West 265 305 17,900 1,780 Climbing Washington Center
06:53AM 37.8583 -77.9325 312° West 265 305 19,400 1,041 Climbing Washington Center
06:54AM 37.9072 -78.0000 313° West 265 305 20,000 446 Climbing Washington Center
06:55AM 37.9639 -78.0808 312° West 278 320 20,300 908 Climbing Washington Center
06:56AM 38.0269 -78.1542 318° Northwest 299 344 21,800 1,513 Climbing Washington Center
06:57AM 38.1269 -78.1628 356° North 313 360 23,300 1,475 Climbing Washington Center
06:58AM 38.2228 -78.1686 357° North 330 380 24,800 836 Climbing Washington Center
06:59AM 38.3206 -78.1747 357° North 340 391 25,000 712 Climbing Washington Center
07:00AM 38.4269 -78.1783 358° North 357 411 26,200 1,008 Climbing Washington Center
07:01AM 38.5247 -78.1872 356° North 357 411 27,000 393 Climbing Washington Center
07:02AM 38.6289 -78.1961 356° North 367 422 27,000  Level Washington Center
07:03AM 38.7289 -78.1997 358° North 373 429 27,000  Level Washington Center
07:04AM 38.8411 -78.2061 357° North 385 443 27,000  Level Washington Center
07:05AM 38.9514 -78.2181 355° North 390 449 27,000  Level Washington Center
07:06AM 39.0639 -78.2303 355° North 395 455 27,000  Level Washington Center
07:07AM 39.1742 -78.2394 356° North 400 460 27,000  Level Washington Center
07:08AM 39.2883 -78.2517 355° North 405 466 27,000  Level Washington Center
07:10AM 39.5411 -78.2772 356° North 420 483 27,000  Level Cleveland Center
07:11AM 39.6569 -78.2889 356° North 417 480 27,000  Level Cleveland Center
07:12AM 39.7886 -78.3147 351° North 419 482 27,000  Level Cleveland Center
07:13AM 39.8642 -78.4064 317° Northwest 376 433 27,000  Level Cleveland Center
07:14AM 39.9322 -78.5061 312° West 371 427 27,000  Level Cleveland Center
07:15AM 40.0003 -78.6094 311° West 376 433 27,000  Level Cleveland Center
07:16AM 40.0689 -78.7117 311° West 374 430 27,000  Level Cleveland Center
07:17AM 40.1517 -78.8364 311° West 378 435 27,000  Level Cleveland Center
07:18AM 40.2206 -78.9411 311° West 381 438 27,000  Level Cleveland Center
07:19AM 40.2906 -79.0467 311° West 385 443 27,000  Level Cleveland Center
07:20AM 40.3578 -79.1494 311° West 372 428 27,000  Level Cleveland Center
07:21AM 40.4247 -79.2519 311° West 370 426 27,000  Level Cleveland Center
07:22AM 40.4878 -79.3483 311° West 374 430 27,000  Level Cleveland Center
07:23AM 40.5653 -79.4689 310° West 364 419 27,000  Level Cleveland Center
07:24AM 40.6308 -79.5694 311° West 364 419 27,000  Level Cleveland Center
07:25AM 40.6953 -79.6697 310° West 362 417 27,000  Level Cleveland Center
07:26AM 40.7606 -79.7700 311° West 363 418 27,000 -537 Level Cleveland Center
07:27AM 40.8261 -79.8719 310° West 367 422 25,900 -1,073 Descending Cleveland Center
07:28AM 40.8911 -79.9750 310° West 369 425 24,800 -927 Descending Cleveland Center
07:30AM 40.9692 -80.0975 310° West 365 420 24,000 -387 Descending Cleveland Center
07:31AM 41.0328 -80.1975 310° West 359 413 24,000  Level Cleveland Center
07:32AM 41.0950 -80.2956 310° West 352 405 24,000  Level Cleveland Center
07:33AM 41.1625 -80.4033 310° West 359 413 24,000 -435 Level Cleveland Center
07:34AM 41.2258 -80.5064 309° West 358 412 23,100 -1,463 Descending Cleveland Center
07:35AM 41.2903 -80.6075 310° West 357 411 21,000 -2,293 Descending Cleveland Center
07:36AM 41.3458 -80.7106 306° West 344 396 18,400 -2,769 Descending Cleveland Center
07:37AM 41.3889 -80.8272 296° West 335 386 15,600 -2,710 Descending Cleveland Center
07:37AM 41.3867 -80.8231 125° Southeast 336 387 15,600 -2,129 Level Cleveland Center
07:37AM 41.4078 -80.8772 297° West 333 383 14,500 -1,869 Descending Cleveland Center
07:38AM 41.4294 -80.9328 297° West 332 382 13,700 -1,833 Descending Cleveland Center
07:38AM 41.4594 -81.0103 297° West 332 382 12,300 -1,839 Descending Cleveland Center
07:39AM 41.4708 -81.0436 295° West 332 382 11,800 -1,869 Descending Cleveland Center
07:39AM 41.5003 -81.1197 297° West 330 380 10,400 -1,770 Descending Cleveland Center
07:40AM 41.5058 -81.1728 278° West 316 364 10,000 -545 Descending Cleveland Center
07:40AM 41.5067 -81.2183 271° West 267 307 9,900 -581 Descending Cleveland Center
07:41AM 41.5033 -81.2686 265° West 266 306 9,400 -1,444 Descending Cleveland Center
07:41AM 41.5039 -81.2989 271° West 228 262 8,600 -1,935 Descending Cleveland Center
07:42AM 41.5006 -81.3550 265° West 238 274 7,400 -1,515 Descending Cleveland Center
07:43AM 41.4972 -81.4419 267° West 234 269 6,000 -1,343 Descending Cleveland Center
07:43AM 41.4983 -81.4572 276° West 234 269 5,900 -787 Descending Cleveland Center
07:44AM 41.4958 -81.5322 267° West 234 269 5,200 -536 Descending Cleveland Center
07:44AM 41.4942 -81.5275 115° Southeast 232 267 5,400 -984 Climbing Cleveland Center
07:45AM 41.4942 -81.6186 270° West 235 270 4,200 -968 Descending Cleveland Center
07:45AM 41.4925 -81.6142 117° Southeast 233 268 4,400 -500 Climbing Cleveland Center
07:46AM 41.4931 -81.7019 271° West 223 257 3,700 -590 Descending Cleveland Center
07:46AM 41.4917 -81.6967 109° East 228 262 3,800 -923 Climbing Cleveland Center
07:47AM 41.4597 -81.7747 241° Southwest 210 242 2,700 -1,125 Descending Cleveland Center
07:47AM 41.4608 -81.7778 296° West 182 209 2,600 -1,161 Descending Cleveland Center
07:48AM 41.4328 -81.8186 228° Southwest 172 198 1,500 -1,180 Descending Cleveland Center
07:48AM 41.4339 -81.8208 304° West 138 159 1,400 -677 Descending Cleveland Center
07:49AM 41.4131 -81.8475 224° Southwest 142 163 800 -590 Descending Cleveland Center